sensor_id;sensor_type;location;lat;lon;timestamp;temperature;humidity
39875;DHT22;25547;52.530;13.194;2022-10-30T00:01:09;15.50;99.90
39875;DHT22;25547;52.530;13.194;2022-10-30T00:03:40;15.40;99.90
39875;DHT22;25547;52.530;13.194;2022-10-30T00:06:05;15.50;99.90
39875;DHT22;25547;52.530;13.194;2022-10-30T00:08:31;15.40;99.90
39875;DHT22;25547;52.530;13.194;2022-10-30T00:11:07;15.40;99.90
39875;DHT22;25547;52.530;13.194;2022-10-30T00:13:36;15.30;99.90
39875;DHT22;25547;52.530;13.194;2022-10-30T00:16:04;15.20;99.90
39875;DHT22;25547;52.530;13.194;2022-10-30T00:18:30;15.00;99.90
39875;DHT22;25547;52.530;13.194;2022-10-30T00:21:04;15.00;99.90
39875;DHT22;25547;52.530;13.194;2022-10-30T00:23:35;15.00;99.90
39875;DHT22;25547;52.530;13.194;2022-10-30T00:26:07;14.90;99.90
39875;DHT22;25547;52.530;13.194;2022-10-30T00:28:32;14.90;99.90
39875;DHT22;25547;52.530;13.194;2022-10-30T00:30:59;14.90;99.90
39875;DHT22;25547;52.530;13.194;2022-10-30T00:33:25;14.90;99.90
39875;DHT22;25547;52.530;13.194;2022-10-30T00:35:53;15.00;99.90
39875;DHT22;25547;52.530;13.194;2022-10-30T00:38:21;15.00;99.90
39875;DHT22;25547;52.530;13.194;2022-10-30T00:40:49;14.90;99.90
39875;DHT22;25547;52.530;13.194;2022-10-30T00:43:47;15.00;99.90
39875;DHT22;25547;52.530;13.194;2022-10-30T00:46:48;15.00;99.90
39875;DHT22;25547;52.530;13.194;2022-10-30T00:49:15;15.00;99.90
39875;DHT22;25547;52.530;13.194;2022-10-30T00:51:46;14.90;99.90
39875;DHT22;25547;52.530;13.194;2022-10-30T00:54:15;14.90;99.90
39875;DHT22;25547;52.530;13.194;2022-10-30T00:56:42;14.80;99.90
39875;DHT22;25547;52.530;13.194;2022-10-30T00:59:16;14.70;99.90
39875;DHT22;25547;52.530;13.194;2022-10-30T01:01:45;14.70;99.90
39875;DHT22;25547;52.530;13.194;2022-10-30T01:04:12;14.60;99.90
39875;DHT22;25547;52.530;13.194;2022-10-30T01:06:41;14.60;99.90
39875;DHT22;25547;52.530;13.194;2022-10-30T01:09:07;14.60;99.90
39875;DHT22;25547;52.530;13.194;2022-10-30T01:11:35;14.60;99.90
39875;DHT22;25547;52.530;13.194;2022-10-30T01:14:03;14.50;99.90
39875;DHT22;25547;52.530;13.194;2022-10-30T01:16:58;14.60;99.90
39875;DHT22;25547;52.530;13.194;2022-10-30T01:22:35;14.50;99.90
39875;DHT22;25547;52.530;13.194;2022-10-30T01:25:34;14.50;99.90
39875;DHT22;25547;52.530;13.194;2022-10-30T01:33:45;14.50;99.90
39875;DHT22;25547;52.530;13.194;2022-10-30T01:36:42;14.50;99.90
39875;DHT22;25547;52.530;13.194;2022-10-30T01:39:26;14.50;99.90
39875;DHT22;25547;52.530;13.194;2022-10-30T01:41:52;14.50;99.90
39875;DHT22;25547;52.530;13.194;2022-10-30T01:44:29;14.60;99.90
39875;DHT22;25547;52.530;13.194;2022-10-30T01:52:51;14.50;99.90
39875;DHT22;25547;52.530;13.194;2022-10-30T01:58:17;14.40;99.90
39875;DHT22;25547;52.530;13.194;2022-10-30T02:00:47;14.40;99.90
39875;DHT22;25547;52.530;13.194;2022-10-30T02:03:17;14.30;99.90
39875;DHT22;25547;52.530;13.194;2022-10-30T02:05:46;14.30;99.90
39875;DHT22;25547;52.530;13.194;2022-10-30T02:08:13;14.40;99.90
39875;DHT22;25547;52.530;13.194;2022-10-30T02:10:40;14.40;99.90
39875;DHT22;25547;52.530;13.194;2022-10-30T02:13:09;14.40;99.90
39875;DHT22;25547;52.530;13.194;2022-10-30T02:15:40;14.50;99.90
39875;DHT22;25547;52.530;13.194;2022-10-30T02:18:06;14.50;99.90
39875;DHT22;25547;52.530;13.194;2022-10-30T02:20:33;14.40;99.90
39875;DHT22;25547;52.530;13.194;2022-10-30T02:22:59;14.40;99.90
39875;DHT22;25547;52.530;13.194;2022-10-30T02:25:25;14.40;99.90
39875;DHT22;25547;52.530;13.194;2022-10-30T02:27:50;14.40;99.90
39875;DHT22;25547;52.530;13.194;2022-10-30T02:30:18;14.30;99.90
39875;DHT22;25547;52.530;13.194;2022-10-30T02:32:48;14.40;99.90
39875;DHT22;25547;52.530;13.194;2022-10-30T02:35:19;14.40;99.90
39875;DHT22;25547;52.530;13.194;2022-10-30T02:37:47;14.40;99.90
39875;DHT22;25547;52.530;13.194;2022-10-30T02:40:13;14.40;99.90
39875;DHT22;25547;52.530;13.194;2022-10-30T02:42:38;14.50;99.90
39875;DHT22;25547;52.530;13.194;2022-10-30T02:45:04;14.50;99.90
39875;DHT22;25547;52.530;13.194;2022-10-30T02:47:32;14.50;99.90
39875;DHT22;25547;52.530;13.194;2022-10-30T02:49:58;14.60;99.90
39875;DHT22;25547;52.530;13.194;2022-10-30T02:52:26;14.50;99.90
39875;DHT22;25547;52.530;13.194;2022-10-30T02:54:54;14.50;99.90
39875;DHT22;25547;52.530;13.194;2022-10-30T02:57:22;14.50;99.90
39875;DHT22;25547;52.530;13.194;2022-10-30T02:59:49;14.50;99.90
39875;DHT22;25547;52.530;13.194;2022-10-30T03:02:15;14.50;99.90
39875;DHT22;25547;52.530;13.194;2022-10-30T03:04:43;14.50;99.90
39875;DHT22;25547;52.530;13.194;2022-10-30T03:07:10;14.50;99.90
39875;DHT22;25547;52.530;13.194;2022-10-30T03:09:36;14.40;99.90
39875;DHT22;25547;52.530;13.194;2022-10-30T03:12:01;14.40;99.90
39875;DHT22;25547;52.530;13.194;2022-10-30T03:14:27;14.50;99.90
39875;DHT22;25547;52.530;13.194;2022-10-30T03:16:55;14.40;99.90
39875;DHT22;25547;52.530;13.194;2022-10-30T03:19:20;14.50;99.90
39875;DHT22;25547;52.530;13.194;2022-10-30T03:21:46;14.50;99.90
39875;DHT22;25547;52.530;13.194;2022-10-30T03:24:12;14.50;99.90
39875;DHT22;25547;52.530;13.194;2022-10-30T03:26:40;14.50;99.90
39875;DHT22;25547;52.530;13.194;2022-10-30T03:29:05;14.50;99.90
39875;DHT22;25547;52.530;13.194;2022-10-30T03:31:31;14.50;99.90
39875;DHT22;25547;52.530;13.194;2022-10-30T03:33:57;14.50;99.90
39875;DHT22;25547;52.530;13.194;2022-10-30T03:36:24;14.50;99.90
39875;DHT22;25547;52.530;13.194;2022-10-30T03:38:50;14.50;99.90
39875;DHT22;25547;52.530;13.194;2022-10-30T03:41:15;14.50;99.90
39875;DHT22;25547;52.530;13.194;2022-10-30T03:43:41;14.50;99.90
39875;DHT22;25547;52.530;13.194;2022-10-30T03:46:10;14.50;99.90
39875;DHT22;25547;52.530;13.194;2022-10-30T03:48:36;14.60;99.90
39875;DHT22;25547;52.530;13.194;2022-10-30T03:51:02;14.70;99.90
39875;DHT22;25547;52.530;13.194;2022-10-30T03:53:28;14.70;99.90
39875;DHT22;25547;52.530;13.194;2022-10-30T03:56:02;14.70;99.90
39875;DHT22;25547;52.530;13.194;2022-10-30T03:58:32;14.80;99.90
39875;DHT22;25547;52.530;13.194;2022-10-30T04:01:05;14.80;99.90
39875;DHT22;25547;52.530;13.194;2022-10-30T04:03:33;14.80;99.90
39875;DHT22;25547;52.530;13.194;2022-10-30T04:06:02;14.90;99.90
39875;DHT22;25547;52.530;13.194;2022-10-30T04:08:27;14.90;99.90
39875;DHT22;25547;52.530;13.194;2022-10-30T04:10:55;14.90;99.90
39875;DHT22;25547;52.530;13.194;2022-10-30T04:13:20;15.00;99.90
39875;DHT22;25547;52.530;13.194;2022-10-30T04:15:49;15.00;99.90
39875;DHT22;25547;52.530;13.194;2022-10-30T04:18:15;14.90;99.90
39875;DHT22;25547;52.530;13.194;2022-10-30T04:20:42;14.90;99.90
39875;DHT22;25547;52.530;13.194;2022-10-30T04:23:12;14.90;99.90
39875;DHT22;25547;52.530;13.194;2022-10-30T04:25:38;14.90;99.90
39875;DHT22;25547;52.530;13.194;2022-10-30T04:28:04;14.90;99.90
39875;DHT22;25547;52.530;13.194;2022-10-30T04:30:30;14.80;99.90
39875;DHT22;25547;52.530;13.194;2022-10-30T04:33:00;14.70;99.90
39875;DHT22;25547;52.530;13.194;2022-10-30T04:35:31;14.70;99.90
39875;DHT22;25547;52.530;13.194;2022-10-30T04:40:28;14.70;99.90
39875;DHT22;25547;52.530;13.194;2022-10-30T04:42:54;14.70;99.90
39875;DHT22;25547;52.530;13.194;2022-10-30T04:45:20;14.80;99.90
39875;DHT22;25547;52.530;13.194;2022-10-30T04:47:48;14.80;99.90
39875;DHT22;25547;52.530;13.194;2022-10-30T04:50:14;14.80;99.90
39875;DHT22;25547;52.530;13.194;2022-10-30T04:52:40;14.80;99.90
39875;DHT22;25547;52.530;13.194;2022-10-30T04:55:07;14.70;99.90
39875;DHT22;25547;52.530;13.194;2022-10-30T04:57:33;14.70;99.90
39875;DHT22;25547;52.530;13.194;2022-10-30T04:59:59;14.70;99.90
39875;DHT22;25547;52.530;13.194;2022-10-30T05:02:27;14.60;99.90
39875;DHT22;25547;52.530;13.194;2022-10-30T05:04:55;14.60;99.90
39875;DHT22;25547;52.530;13.194;2022-10-30T05:07:23;14.60;99.90
39875;DHT22;25547;52.530;13.194;2022-10-30T05:09:49;14.70;99.90
39875;DHT22;25547;52.530;13.194;2022-10-30T05:12:14;14.60;99.90
39875;DHT22;25547;52.530;13.194;2022-10-30T05:14:43;14.60;99.90
39875;DHT22;25547;52.530;13.194;2022-10-30T05:17:11;14.70;99.90
39875;DHT22;25547;52.530;13.194;2022-10-30T05:19:39;14.60;99.90
39875;DHT22;25547;52.530;13.194;2022-10-30T05:22:07;14.60;99.90
39875;DHT22;25547;52.530;13.194;2022-10-30T05:24:34;14.50;99.90
39875;DHT22;25547;52.530;13.194;2022-10-30T05:27:02;14.50;99.90
39875;DHT22;25547;52.530;13.194;2022-10-30T05:29:28;14.50;99.90
39875;DHT22;25547;52.530;13.194;2022-10-30T05:31:53;14.50;99.90
39875;DHT22;25547;52.530;13.194;2022-10-30T05:34:21;14.50;99.90
39875;DHT22;25547;52.530;13.194;2022-10-30T05:36:47;14.50;99.90
39875;DHT22;25547;52.530;13.194;2022-10-30T05:39:15;14.60;99.90
39875;DHT22;25547;52.530;13.194;2022-10-30T05:41:40;14.50;99.90
39875;DHT22;25547;52.530;13.194;2022-10-30T05:44:06;14.50;99.90
39875;DHT22;25547;52.530;13.194;2022-10-30T05:46:31;14.50;99.90
39875;DHT22;25547;52.530;13.194;2022-10-30T05:48:57;14.50;99.90
39875;DHT22;25547;52.530;13.194;2022-10-30T05:51:24;14.50;99.90
39875;DHT22;25547;52.530;13.194;2022-10-30T05:53:50;14.50;99.90
39875;DHT22;25547;52.530;13.194;2022-10-30T05:56:18;14.60;99.90
39875;DHT22;25547;52.530;13.194;2022-10-30T05:58:44;14.70;99.90
39875;DHT22;25547;52.530;13.194;2022-10-30T06:01:12;14.70;99.90
39875;DHT22;25547;52.530;13.194;2022-10-30T06:03:40;14.70;99.90
39875;DHT22;25547;52.530;13.194;2022-10-30T06:06:10;14.70;99.90
39875;DHT22;25547;52.530;13.194;2022-10-30T06:08:36;14.70;99.90
39875;DHT22;25547;52.530;13.194;2022-10-30T06:11:02;14.70;99.90
39875;DHT22;25547;52.530;13.194;2022-10-30T06:13:27;14.70;99.90
39875;DHT22;25547;52.530;13.194;2022-10-30T06:15:58;14.70;99.90
39875;DHT22;25547;52.530;13.194;2022-10-30T06:18:24;14.80;99.90
39875;DHT22;25547;52.530;13.194;2022-10-30T06:20:53;14.80;99.90
39875;DHT22;25547;52.530;13.194;2022-10-30T06:23:19;14.90;99.90
39875;DHT22;25547;52.530;13.194;2022-10-30T06:25:47;14.80;99.90
39875;DHT22;25547;52.530;13.194;2022-10-30T06:28:13;14.80;99.90
39875;DHT22;25547;52.530;13.194;2022-10-30T06:30:44;14.80;99.90
39875;DHT22;25547;52.530;13.194;2022-10-30T06:33:12;14.80;99.90
39875;DHT22;25547;52.530;13.194;2022-10-30T06:35:37;14.90;99.90
39875;DHT22;25547;52.530;13.194;2022-10-30T06:38:05;14.90;99.90
39875;DHT22;25547;52.530;13.194;2022-10-30T06:40:33;14.90;99.90
39875;DHT22;25547;52.530;13.194;2022-10-30T06:43:01;14.90;99.90
39875;DHT22;25547;52.530;13.194;2022-10-30T06:45:28;15.00;99.90
39875;DHT22;25547;52.530;13.194;2022-10-30T06:48:02;15.00;99.90
39875;DHT22;25547;52.530;13.194;2022-10-30T06:50:30;15.00;99.90
39875;DHT22;25547;52.530;13.194;2022-10-30T06:52:56;14.90;99.90
39875;DHT22;25547;52.530;13.194;2022-10-30T06:55:24;15.00;99.90
39875;DHT22;25547;52.530;13.194;2022-10-30T06:57:53;14.90;99.90
39875;DHT22;25547;52.530;13.194;2022-10-30T07:00:20;14.90;99.90
39875;DHT22;25547;52.530;13.194;2022-10-30T07:02:54;14.80;99.90
39875;DHT22;25547;52.530;13.194;2022-10-30T07:05:22;14.80;99.90
39875;DHT22;25547;52.530;13.194;2022-10-30T07:07:48;14.80;99.90
39875;DHT22;25547;52.530;13.194;2022-10-30T07:10:13;14.80;99.90
39875;DHT22;25547;52.530;13.194;2022-10-30T07:12:39;14.90;99.90
39875;DHT22;25547;52.530;13.194;2022-10-30T07:15:05;15.00;99.90
39875;DHT22;25547;52.530;13.194;2022-10-30T07:17:31;15.10;99.90
39875;DHT22;25547;52.530;13.194;2022-10-30T07:19:56;15.20;99.90
39875;DHT22;25547;52.530;13.194;2022-10-30T07:22:24;15.10;99.90
39875;DHT22;25547;52.530;13.194;2022-10-30T07:24:52;15.10;99.90
39875;DHT22;25547;52.530;13.194;2022-10-30T07:27:21;15.10;99.90
39875;DHT22;25547;52.530;13.194;2022-10-30T07:29:46;15.20;99.90
39875;DHT22;25547;52.530;13.194;2022-10-30T07:32:12;15.20;99.90
39875;DHT22;25547;52.530;13.194;2022-10-30T07:34:38;15.20;99.90
39875;DHT22;25547;52.530;13.194;2022-10-30T07:37:03;15.20;99.90
39875;DHT22;25547;52.530;13.194;2022-10-30T07:39:29;15.40;99.90
39875;DHT22;25547;52.530;13.194;2022-10-30T07:41:54;15.30;99.90
39875;DHT22;25547;52.530;13.194;2022-10-30T07:44:20;15.40;99.90
39875;DHT22;25547;52.530;13.194;2022-10-30T07:46:47;15.50;99.90
39875;DHT22;25547;52.530;13.194;2022-10-30T07:49:13;15.50;99.90
39875;DHT22;25547;52.530;13.194;2022-10-30T07:51:41;15.60;99.90
39875;DHT22;25547;52.530;13.194;2022-10-30T07:54:09;15.80;99.90
39875;DHT22;25547;52.530;13.194;2022-10-30T07:56:34;16.00;99.90
39875;DHT22;25547;52.530;13.194;2022-10-30T07:59:02;16.00;99.90
39875;DHT22;25547;52.530;13.194;2022-10-30T08:01:30;15.90;99.90
39875;DHT22;25547;52.530;13.194;2022-10-30T08:03:58;15.80;99.90
39875;DHT22;25547;52.530;13.194;2022-10-30T08:06:24;15.70;99.90
39875;DHT22;25547;52.530;13.194;2022-10-30T08:08:49;15.70;99.90
39875;DHT22;25547;52.530;13.194;2022-10-30T08:11:15;15.70;99.90
39875;DHT22;25547;52.530;13.194;2022-10-30T08:13:40;15.80;99.90
39875;DHT22;25547;52.530;13.194;2022-10-30T08:16:08;15.80;99.90
39875;DHT22;25547;52.530;13.194;2022-10-30T08:18:34;15.80;99.90
39875;DHT22;25547;52.530;13.194;2022-10-30T08:20:59;15.80;99.90
39875;DHT22;25547;52.530;13.194;2022-10-30T08:23:27;15.90;99.90
39875;DHT22;25547;52.530;13.194;2022-10-30T08:25:56;16.10;99.90
39875;DHT22;25547;52.530;13.194;2022-10-30T08:28:24;16.10;99.90
39875;DHT22;25547;52.530;13.194;2022-10-30T08:30:50;16.10;99.90
39875;DHT22;25547;52.530;13.194;2022-10-30T08:33:15;16.20;99.90
39875;DHT22;25547;52.530;13.194;2022-10-30T08:35:54;16.30;99.90
39875;DHT22;25547;52.530;13.194;2022-10-30T08:38:21;16.40;99.90
39875;DHT22;25547;52.530;13.194;2022-10-30T08:40:47;16.50;99.90
39875;DHT22;25547;52.530;13.194;2022-10-30T08:43:13;16.70;99.90
39875;DHT22;25547;52.530;13.194;2022-10-30T08:45:41;16.90;99.90
39875;DHT22;25547;52.530;13.194;2022-10-30T08:48:10;17.00;99.90
39875;DHT22;25547;52.530;13.194;2022-10-30T08:50:39;17.00;99.90
39875;DHT22;25547;52.530;13.194;2022-10-30T08:53:06;17.00;99.90
39875;DHT22;25547;52.530;13.194;2022-10-30T08:55:35;17.00;99.90
39875;DHT22;25547;52.530;13.194;2022-10-30T08:58:01;16.90;99.90
39875;DHT22;25547;52.530;13.194;2022-10-30T09:00:27;16.80;99.90
39875;DHT22;25547;52.530;13.194;2022-10-30T09:02:53;16.80;99.90
39875;DHT22;25547;52.530;13.194;2022-10-30T09:05:19;16.80;99.90
39875;DHT22;25547;52.530;13.194;2022-10-30T09:07:47;16.80;99.90
39875;DHT22;25547;52.530;13.194;2022-10-30T09:10:15;16.80;99.90
39875;DHT22;25547;52.530;13.194;2022-10-30T09:12:40;16.90;99.90
39875;DHT22;25547;52.530;13.194;2022-10-30T09:15:06;16.90;99.90
39875;DHT22;25547;52.530;13.194;2022-10-30T09:17:32;17.10;99.90
39875;DHT22;25547;52.530;13.194;2022-10-30T09:19:58;17.10;99.90
39875;DHT22;25547;52.530;13.194;2022-10-30T09:22:23;17.20;99.90
39875;DHT22;25547;52.530;13.194;2022-10-30T09:24:49;17.20;99.90
39875;DHT22;25547;52.530;13.194;2022-10-30T09:27:14;17.20;99.90
39875;DHT22;25547;52.530;13.194;2022-10-30T09:29:40;17.20;99.90
39875;DHT22;25547;52.530;13.194;2022-10-30T09:32:06;17.20;99.90
39875;DHT22;25547;52.530;13.194;2022-10-30T09:34:35;17.20;99.90
39875;DHT22;25547;52.530;13.194;2022-10-30T09:37:03;17.20;99.90
39875;DHT22;25547;52.530;13.194;2022-10-30T09:39:28;17.30;99.90
39875;DHT22;25547;52.530;13.194;2022-10-30T09:52:51;17.50;99.90
39875;DHT22;25547;52.530;13.194;2022-10-30T09:58:16;17.50;99.90
39875;DHT22;25547;52.530;13.194;2022-10-30T10:00:55;17.70;99.90
39875;DHT22;25547;52.530;13.194;2022-10-30T10:06:25;17.80;99.90
39875;DHT22;25547;52.530;13.194;2022-10-30T10:11:35;17.80;99.90
39875;DHT22;25547;52.530;13.194;2022-10-30T10:14:08;17.90;99.90
39875;DHT22;25547;52.530;13.194;2022-10-30T10:16:41;17.90;99.90
39875;DHT22;25547;52.530;13.194;2022-10-30T10:19:39;18.00;99.90
39875;DHT22;25547;52.530;13.194;2022-10-30T10:25:11;18.10;99.90
39875;DHT22;25547;52.530;13.194;2022-10-30T10:30:50;18.20;99.90
39875;DHT22;25547;52.530;13.194;2022-10-30T10:36:39;18.30;99.90
39875;DHT22;25547;52.530;13.194;2022-10-30T10:39:13;18.30;99.90
39875;DHT22;25547;52.530;13.194;2022-10-30T10:45:00;18.30;99.90
39875;DHT22;25547;52.530;13.194;2022-10-30T10:52:55;18.30;99.90
39875;DHT22;25547;52.530;13.194;2022-10-30T10:55:27;18.40;99.90
39875;DHT22;25547;52.530;13.194;2022-10-30T10:58:10;18.40;99.90
39875;DHT22;25547;52.530;13.194;2022-10-30T11:00:37;18.40;99.90
39875;DHT22;25547;52.530;13.194;2022-10-30T11:03:24;18.40;99.90
39875;DHT22;25547;52.530;13.194;2022-10-30T11:05:56;18.40;99.90
39875;DHT22;25547;52.530;13.194;2022-10-30T11:08:32;18.50;99.90
39875;DHT22;25547;52.530;13.194;2022-10-30T11:11:01;18.50;99.90
39875;DHT22;25547;52.530;13.194;2022-10-30T11:13:30;18.50;99.90
39875;DHT22;25547;52.530;13.194;2022-10-30T11:18:27;18.50;99.90
39875;DHT22;25547;52.530;13.194;2022-10-30T11:21:16;18.40;99.90
39875;DHT22;25547;52.530;13.194;2022-10-30T11:23:47;18.50;99.90
39875;DHT22;25547;52.530;13.194;2022-10-30T11:28:47;18.50;99.90
39875;DHT22;25547;52.530;13.194;2022-10-30T11:31:22;18.50;99.90
39875;DHT22;25547;52.530;13.194;2022-10-30T11:33:51;18.60;99.90
39875;DHT22;25547;52.530;13.194;2022-10-30T11:36:23;18.70;99.90
39875;DHT22;25547;52.530;13.194;2022-10-30T11:38:50;18.70;99.90
39875;DHT22;25547;52.530;13.194;2022-10-30T11:41:16;18.70;99.90
39875;DHT22;25547;52.530;13.194;2022-10-30T11:43:43;18.70;99.90
39875;DHT22;25547;52.530;13.194;2022-10-30T11:46:11;18.70;99.90
39875;DHT22;25547;52.530;13.194;2022-10-30T11:48:43;18.70;99.90
39875;DHT22;25547;52.530;13.194;2022-10-30T11:51:10;18.70;99.90
39875;DHT22;25547;52.530;13.194;2022-10-30T11:53:46;18.90;99.90
39875;DHT22;25547;52.530;13.194;2022-10-30T11:56:19;19.30;99.90
39875;DHT22;25547;52.530;13.194;2022-10-30T11:58:55;19.50;99.90
39875;DHT22;25547;52.530;13.194;2022-10-30T12:03:48;19.20;99.90
39875;DHT22;25547;52.530;13.194;2022-10-30T12:06:19;19.10;99.90
39875;DHT22;25547;52.530;13.194;2022-10-30T12:11:34;19.10;99.90
39875;DHT22;25547;52.530;13.194;2022-10-30T12:14:03;19.20;99.90
39875;DHT22;25547;52.530;13.194;2022-10-30T12:16:34;18.90;99.90
39875;DHT22;25547;52.530;13.194;2022-10-30T12:19:01;19.00;99.90
39875;DHT22;25547;52.530;13.194;2022-10-30T12:21:36;19.00;99.90
39875;DHT22;25547;52.530;13.194;2022-10-30T12:24:04;19.00;99.90
39875;DHT22;25547;52.530;13.194;2022-10-30T12:26:36;19.10;99.90
39875;DHT22;25547;52.530;13.194;2022-10-30T12:29:11;19.10;99.90
39875;DHT22;25547;52.530;13.194;2022-10-30T12:37:05;19.10;99.90
39875;DHT22;25547;52.530;13.194;2022-10-30T12:39:46;19.20;99.90
39875;DHT22;25547;52.530;13.194;2022-10-30T12:42:16;19.30;99.90
39875;DHT22;25547;52.530;13.194;2022-10-30T12:44:46;19.30;99.90
39875;DHT22;25547;52.530;13.194;2022-10-30T12:49:53;19.30;99.90
39875;DHT22;25547;52.530;13.194;2022-10-30T12:52:33;19.30;99.90
39875;DHT22;25547;52.530;13.194;2022-10-30T12:55:12;19.20;99.90
39875;DHT22;25547;52.530;13.194;2022-10-30T12:57:45;19.20;99.90
39875;DHT22;25547;52.530;13.194;2022-10-30T13:00:17;19.20;99.90
39875;DHT22;25547;52.530;13.194;2022-10-30T13:05:35;19.10;99.90
39875;DHT22;25547;52.530;13.194;2022-10-30T13:13:36;19.30;99.90
39875;DHT22;25547;52.530;13.194;2022-10-30T13:16:10;19.30;99.90
39875;DHT22;25547;52.530;13.194;2022-10-30T13:18:37;19.20;99.90
39875;DHT22;25547;52.530;13.194;2022-10-30T13:29:30;19.30;99.90
39875;DHT22;25547;52.530;13.194;2022-10-30T13:32:27;19.20;99.90
39875;DHT22;25547;52.530;13.194;2022-10-30T13:43:43;19.20;99.90
39875;DHT22;25547;52.530;13.194;2022-10-30T13:49:55;19.20;99.90
39875;DHT22;25547;52.530;13.194;2022-10-30T13:52:26;19.20;99.90
39875;DHT22;25547;52.530;13.194;2022-10-30T13:55:26;19.20;99.90
39875;DHT22;25547;52.530;13.194;2022-10-30T14:03:47;19.10;99.90
39875;DHT22;25547;52.530;13.194;2022-10-30T14:10:01;19.10;99.90
39875;DHT22;25547;52.530;13.194;2022-10-30T14:12:49;19.10;99.90
39875;DHT22;25547;52.530;13.194;2022-10-30T14:23:07;19.00;99.90
39875;DHT22;25547;52.530;13.194;2022-10-30T14:25:33;19.00;99.90
39875;DHT22;25547;52.530;13.194;2022-10-30T14:28:01;18.90;99.90
39875;DHT22;25547;52.530;13.194;2022-10-30T14:30:27;19.00;99.90
39875;DHT22;25547;52.530;13.194;2022-10-30T14:32:54;19.00;99.90
39875;DHT22;25547;52.530;13.194;2022-10-30T14:35:32;19.00;99.90
39875;DHT22;25547;52.530;13.194;2022-10-30T14:41:02;18.90;99.90
39875;DHT22;25547;52.530;13.194;2022-10-30T14:49:26;18.80;99.90
39875;DHT22;25547;52.530;13.194;2022-10-30T14:54:43;18.80;99.90
39875;DHT22;25547;52.530;13.194;2022-10-30T14:57:41;18.70;99.90
39875;DHT22;25547;52.530;13.194;2022-10-30T15:05:44;18.70;99.90
39875;DHT22;25547;52.530;13.194;2022-10-30T15:08:20;18.70;99.90
39875;DHT22;25547;52.530;13.194;2022-10-30T15:13:50;18.70;99.90
39875;DHT22;25547;52.530;13.194;2022-10-30T15:16:18;18.70;99.90
39875;DHT22;25547;52.530;13.194;2022-10-30T15:18:55;18.70;99.90
39875;DHT22;25547;52.530;13.194;2022-10-30T15:21:24;18.60;99.90
39875;DHT22;25547;52.530;13.194;2022-10-30T15:23:56;18.50;99.90
39875;DHT22;25547;52.530;13.194;2022-10-30T15:26:37;18.50;99.90
39875;DHT22;25547;52.530;13.194;2022-10-30T15:29:04;18.50;99.90
39875;DHT22;25547;52.530;13.194;2022-10-30T15:31:31;18.40;99.90
39875;DHT22;25547;52.530;13.194;2022-10-30T15:33:58;18.30;99.90
39875;DHT22;25547;52.530;13.194;2022-10-30T15:36:26;18.30;99.90
39875;DHT22;25547;52.530;13.194;2022-10-30T15:39:13;18.20;99.90
39875;DHT22;25547;52.530;13.194;2022-10-30T15:41:46;18.20;99.90
39875;DHT22;25547;52.530;13.194;2022-10-30T15:44:17;18.20;99.90
39875;DHT22;25547;52.530;13.194;2022-10-30T15:46:47;18.10;99.90
39875;DHT22;25547;52.530;13.194;2022-10-30T15:49:13;18.00;99.90
39875;DHT22;25547;52.530;13.194;2022-10-30T15:51:42;18.00;99.90
39875;DHT22;25547;52.530;13.194;2022-10-30T15:54:09;17.90;99.90
39875;DHT22;25547;52.530;13.194;2022-10-30T15:56:36;17.90;99.90
39875;DHT22;25547;52.530;13.194;2022-10-30T15:59:03;17.80;99.90
39875;DHT22;25547;52.530;13.194;2022-10-30T16:01:30;17.70;99.90
39875;DHT22;25547;52.530;13.194;2022-10-30T16:03:56;17.70;99.90
39875;DHT22;25547;52.530;13.194;2022-10-30T16:06:29;17.70;99.90
39875;DHT22;25547;52.530;13.194;2022-10-30T16:08:55;17.60;99.90
39875;DHT22;25547;52.530;13.194;2022-10-30T16:11:23;17.70;99.90
39875;DHT22;25547;52.530;13.194;2022-10-30T16:13:50;17.60;99.90
39875;DHT22;25547;52.530;13.194;2022-10-30T16:16:19;17.50;99.90
39875;DHT22;25547;52.530;13.194;2022-10-30T16:18:48;17.50;99.90
39875;DHT22;25547;52.530;13.194;2022-10-30T16:21:14;17.40;99.90
39875;DHT22;25547;52.530;13.194;2022-10-30T16:23:45;17.30;99.90
39875;DHT22;25547;52.530;13.194;2022-10-30T16:28:46;17.30;99.90
39875;DHT22;25547;52.530;13.194;2022-10-30T16:31:14;17.20;99.90
39875;DHT22;25547;52.530;13.194;2022-10-30T16:33:40;17.20;99.90
39875;DHT22;25547;52.530;13.194;2022-10-30T16:36:10;17.10;99.90
39875;DHT22;25547;52.530;13.194;2022-10-30T16:38:42;17.10;99.90
39875;DHT22;25547;52.530;13.194;2022-10-30T16:41:08;17.10;99.90
39875;DHT22;25547;52.530;13.194;2022-10-30T16:43:38;17.10;99.90
39875;DHT22;25547;52.530;13.194;2022-10-30T16:48:33;17.00;99.90
39875;DHT22;25547;52.530;13.194;2022-10-30T16:51:00;16.90;99.90
39875;DHT22;25547;52.530;13.194;2022-10-30T16:53:26;16.90;99.90
39875;DHT22;25547;52.530;13.194;2022-10-30T16:55:52;16.80;99.90
39875;DHT22;25547;52.530;13.194;2022-10-30T16:58:18;16.80;99.90
39875;DHT22;25547;52.530;13.194;2022-10-30T17:00:49;16.80;99.90
39875;DHT22;25547;52.530;13.194;2022-10-30T17:03:15;16.80;99.90
39875;DHT22;25547;52.530;13.194;2022-10-30T17:05:44;16.70;99.90
39875;DHT22;25547;52.530;13.194;2022-10-30T17:08:32;16.60;99.90
39875;DHT22;25547;52.530;13.194;2022-10-30T17:10:59;16.60;99.90
39875;DHT22;25547;52.530;13.194;2022-10-30T17:13:37;16.60;99.90
39875;DHT22;25547;52.530;13.194;2022-10-30T17:16:11;16.50;99.90
39875;DHT22;25547;52.530;13.194;2022-10-30T17:18:38;16.50;99.90
39875;DHT22;25547;52.530;13.194;2022-10-30T17:21:05;16.50;99.90
39875;DHT22;25547;52.530;13.194;2022-10-30T17:23:32;16.40;99.90
39875;DHT22;25547;52.530;13.194;2022-10-30T17:25:58;16.40;99.90
39875;DHT22;25547;52.530;13.194;2022-10-30T17:28:34;16.30;99.90
39875;DHT22;25547;52.530;13.194;2022-10-30T17:34:09;16.30;99.90
39875;DHT22;25547;52.530;13.194;2022-10-30T17:36:37;16.30;99.90
39875;DHT22;25547;52.530;13.194;2022-10-30T17:39:08;16.30;99.90
39875;DHT22;25547;52.530;13.194;2022-10-30T17:41:36;16.20;99.90
39875;DHT22;25547;52.530;13.194;2022-10-30T17:44:02;16.20;99.90
39875;DHT22;25547;52.530;13.194;2022-10-30T17:46:30;16.20;99.90
39875;DHT22;25547;52.530;13.194;2022-10-30T17:48:56;16.10;99.90
39875;DHT22;25547;52.530;13.194;2022-10-30T17:51:22;16.00;99.90
39875;DHT22;25547;52.530;13.194;2022-10-30T17:53:47;16.00;99.90
39875;DHT22;25547;52.530;13.194;2022-10-30T17:58:41;16.00;99.90
39875;DHT22;25547;52.530;13.194;2022-10-30T18:01:12;15.90;99.90